Tring, United Kingdom
Current Conditions -  °F | °C
As of 2:20 PM on Saturday 22 Nov 2014 (Local Time) from EGGW Reporting Station
Haze Haze  
Wind Chill: 55°   Ceiling: 200
Heat Index: 55°   Visibility: 1.8mi
Dew Point: 55°   Wind: 6mph
Humidity: 100%   Direction: 170°S
Pressure: 29.91"   Gusts: NA
Location:  51.79°N, 0.66°W
Report Text: EGGW 221420Z 17005KT 3000 BR BKN002 13/13 Q1013
Loading
Personal Weather Stations






























Interactive Weather Map New forecast layout! Learn more

10-Day Weather Forecast

Advertisements
Track Severe Weather on mobile